sensor_id;sensor_type;location;lat;lon;timestamp;P1;durP1;ratioP1;P2;durP2;ratioP2
55655;SDS011;41530;52.382;5.270;2024-02-26T00:02:07;1.33;;;0.93;;
55655;SDS011;41530;52.382;5.270;2024-02-26T00:04:34;1.70;;;1.10;;
55655;SDS011;41530;52.382;5.270;2024-02-26T00:07:00;2.20;;;1.10;;
55655;SDS011;41530;52.382;5.270;2024-02-26T00:09:27;1.65;;;0.90;;
55655;SDS011;41530;52.382;5.270;2024-02-26T00:11:54;1.58;;;0.90;;
55655;SDS011;41530;52.382;5.270;2024-02-26T00:14:21;1.75;;;1.05;;
55655;SDS011;41530;52.382;5.270;2024-02-26T00:16:48;1.20;;;0.90;;
55655;SDS011;41530;52.382;5.270;2024-02-26T00:19:15;1.45;;;1.00;;
55655;SDS011;41530;52.382;5.270;2024-02-26T00:21:42;2.55;;;0.95;;
55655;SDS011;41530;52.382;5.270;2024-02-26T00:24:08;1.50;;;0.90;;
55655;SDS011;41530;52.382;5.270;2024-02-26T00:26:35;1.95;;;1.38;;
55655;SDS011;41530;52.382;5.270;2024-02-26T00:29:02;1.25;;;0.95;;
55655;SDS011;41530;52.382;5.270;2024-02-26T00:31:29;1.10;;;1.00;;
55655;SDS011;41530;52.382;5.270;2024-02-26T00:33:56;1.33;;;1.00;;
55655;SDS011;41530;52.382;5.270;2024-02-26T00:36:23;1.92;;;1.30;;
55655;SDS011;41530;52.382;5.270;2024-02-26T00:38:50;2.10;;;1.40;;
55655;SDS011;41530;52.382;5.270;2024-02-26T00:41:19;1.52;;;1.10;;
55655;SDS011;41530;52.382;5.270;2024-02-26T00:43:47;1.73;;;1.10;;
55655;SDS011;41530;52.382;5.270;2024-02-26T00:46:13;1.92;;;1.08;;
55655;SDS011;41530;52.382;5.270;2024-02-26T00:48:43;3.15;;;1.00;;
55655;SDS011;41530;52.382;5.270;2024-02-26T00:51:10;3.70;;;1.35;;
55655;SDS011;41530;52.382;5.270;2024-02-26T00:53:37;1.48;;;1.25;;
55655;SDS011;41530;52.382;5.270;2024-02-26T00:56:04;2.85;;;1.00;;
55655;SDS011;41530;52.382;5.270;2024-02-26T00:58:31;1.88;;;1.10;;
55655;SDS011;41530;52.382;5.270;2024-02-26T01:00:57;2.72;;;1.38;;
55655;SDS011;41530;52.382;5.270;2024-02-26T01:03:27;1.65;;;1.20;;
55655;SDS011;41530;52.382;5.270;2024-02-26T01:05:54;1.67;;;1.27;;
55655;SDS011;41530;52.382;5.270;2024-02-26T01:08:25;1.20;;;1.10;;
55655;SDS011;41530;52.382;5.270;2024-02-26T01:10:51;1.67;;;1.27;;
55655;SDS011;41530;52.382;5.270;2024-02-26T01:13:18;1.90;;;1.00;;
55655;SDS011;41530;52.382;5.270;2024-02-26T01:15:45;1.45;;;1.02;;
55655;SDS011;41530;52.382;5.270;2024-02-26T01:18:12;2.08;;;1.27;;
55655;SDS011;41530;52.382;5.270;2024-02-26T01:20:39;1.27;;;1.17;;
55655;SDS011;41530;52.382;5.270;2024-02-26T01:23:05;1.45;;;1.10;;
55655;SDS011;41530;52.382;5.270;2024-02-26T01:25:32;2.53;;;1.48;;
55655;SDS011;41530;52.382;5.270;2024-02-26T01:27:59;4.40;;;1.20;;
55655;SDS011;41530;52.382;5.270;2024-02-26T01:30:25;1.35;;;1.17;;
55655;SDS011;41530;52.382;5.270;2024-02-26T01:32:52;1.60;;;1.25;;
55655;SDS011;41530;52.382;5.270;2024-02-26T01:35:19;1.17;;;1.08;;
55655;SDS011;41530;52.382;5.270;2024-02-26T01:37:46;1.75;;;1.10;;
55655;SDS011;41530;52.382;5.270;2024-02-26T01:40:13;1.30;;;1.10;;
55655;SDS011;41530;52.382;5.270;2024-02-26T01:42:44;3.10;;;1.38;;
55655;SDS011;41530;52.382;5.270;2024-02-26T01:45:15;2.45;;;1.15;;
55655;SDS011;41530;52.382;5.270;2024-02-26T01:47:51;1.30;;;1.20;;
55655;SDS011;41530;52.382;5.270;2024-02-26T01:50:19;3.20;;;1.50;;
55655;SDS011;41530;52.382;5.270;2024-02-26T01:52:46;1.55;;;1.20;;
55655;SDS011;41530;52.382;5.270;2024-02-26T01:55:13;1.25;;;1.10;;
55655;SDS011;41530;52.382;5.270;2024-02-26T01:57:44;1.63;;;1.20;;
55655;SDS011;41530;52.382;5.270;2024-02-26T02:00:14;2.25;;;1.13;;
55655;SDS011;41530;52.382;5.270;2024-02-26T02:02:41;1.85;;;1.10;;
55655;SDS011;41530;52.382;5.270;2024-02-26T02:05:10;1.45;;;1.23;;
55655;SDS011;41530;52.382;5.270;2024-02-26T02:07:38;1.27;;;1.15;;
55655;SDS011;41530;52.382;5.270;2024-02-26T02:10:07;1.25;;;1.10;;
55655;SDS011;41530;52.382;5.270;2024-02-26T02:12:35;1.42;;;1.20;;
55655;SDS011;41530;52.382;5.270;2024-02-26T02:15:04;2.17;;;1.50;;
55655;SDS011;41530;52.382;5.270;2024-02-26T02:17:32;1.20;;;1.10;;
55655;SDS011;41530;52.382;5.270;2024-02-26T02:19:59;3.80;;;1.55;;
55655;SDS011;41530;52.382;5.270;2024-02-26T02:22:29;2.22;;;1.55;;
55655;SDS011;41530;52.382;5.270;2024-02-26T02:24:58;1.42;;;1.33;;
55655;SDS011;41530;52.382;5.270;2024-02-26T02:27:25;2.60;;;1.50;;
55655;SDS011;41530;52.382;5.270;2024-02-26T02:29:53;3.05;;;1.30;;
55655;SDS011;41530;52.382;5.270;2024-02-26T02:32:20;1.52;;;1.33;;
55655;SDS011;41530;52.382;5.270;2024-02-26T02:34:48;1.75;;;1.40;;
55655;SDS011;41530;52.382;5.270;2024-02-26T02:37:15;1.55;;;1.35;;
55655;SDS011;41530;52.382;5.270;2024-02-26T02:39:41;2.35;;;1.40;;
55655;SDS011;41530;52.382;5.270;2024-02-26T02:42:09;1.65;;;1.45;;
55655;SDS011;41530;52.382;5.270;2024-02-26T02:44:39;1.35;;;1.25;;
55655;SDS011;41530;52.382;5.270;2024-02-26T02:47:06;2.67;;;1.55;;
55655;SDS011;41530;52.382;5.270;2024-02-26T02:49:33;1.45;;;1.35;;
55655;SDS011;41530;52.382;5.270;2024-02-26T02:52:00;1.73;;;1.42;;
55655;SDS011;41530;52.382;5.270;2024-02-26T02:54:27;2.10;;;1.52;;
55655;SDS011;41530;52.382;5.270;2024-02-26T02:56:54;1.60;;;1.50;;
55655;SDS011;41530;52.382;5.270;2024-02-26T02:59:20;2.08;;;1.67;;
55655;SDS011;41530;52.382;5.270;2024-02-26T03:01:47;2.17;;;1.55;;
55655;SDS011;41530;52.382;5.270;2024-02-26T03:04:14;1.77;;;1.60;;
55655;SDS011;41530;52.382;5.270;2024-02-26T03:06:40;2.55;;;1.50;;
55655;SDS011;41530;52.382;5.270;2024-02-26T03:09:10;2.70;;;1.67;;
55655;SDS011;41530;52.382;5.270;2024-02-26T03:11:37;2.13;;;1.70;;
55655;SDS011;41530;52.382;5.270;2024-02-26T03:14:03;2.08;;;1.45;;
55655;SDS011;41530;52.382;5.270;2024-02-26T03:16:31;1.70;;;1.60;;
55655;SDS011;41530;52.382;5.270;2024-02-26T03:18:58;2.42;;;1.45;;
55655;SDS011;41530;52.382;5.270;2024-02-26T03:21:25;2.08;;;1.60;;
55655;SDS011;41530;52.382;5.270;2024-02-26T03:23:54;1.60;;;1.50;;
55655;SDS011;41530;52.382;5.270;2024-02-26T03:26:21;2.55;;;1.80;;
55655;SDS011;41530;52.382;5.270;2024-02-26T03:28:47;2.35;;;1.77;;
55655;SDS011;41530;52.382;5.270;2024-02-26T03:31:14;2.53;;;1.55;;
55655;SDS011;41530;52.382;5.270;2024-02-26T03:33:41;2.28;;;1.70;;
55655;SDS011;41530;52.382;5.270;2024-02-26T03:36:08;1.85;;;1.50;;
55655;SDS011;41530;52.382;5.270;2024-02-26T03:38:34;2.00;;;1.80;;
55655;SDS011;41530;52.382;5.270;2024-02-26T03:41:01;1.58;;;1.48;;
55655;SDS011;41530;52.382;5.270;2024-02-26T03:43:28;1.77;;;1.63;;
55655;SDS011;41530;52.382;5.270;2024-02-26T03:45:54;1.55;;;1.45;;
55655;SDS011;41530;52.382;5.270;2024-02-26T03:48:21;2.03;;;1.60;;
55655;SDS011;41530;52.382;5.270;2024-02-26T03:50:48;2.85;;;2.03;;
55655;SDS011;41530;52.382;5.270;2024-02-26T03:53:14;1.63;;;1.50;;
55655;SDS011;41530;52.382;5.270;2024-02-26T03:55:41;6.35;;;1.58;;
55655;SDS011;41530;52.382;5.270;2024-02-26T03:58:08;3.55;;;1.77;;
55655;SDS011;41530;52.382;5.270;2024-02-26T04:00:36;5.25;;;1.67;;
55655;SDS011;41530;52.382;5.270;2024-02-26T04:03:03;2.05;;;1.70;;
55655;SDS011;41530;52.382;5.270;2024-02-26T04:05:30;2.08;;;1.70;;
55655;SDS011;41530;52.382;5.270;2024-02-26T04:07:57;2.00;;;1.80;;
55655;SDS011;41530;52.382;5.270;2024-02-26T04:10:24;2.15;;;1.92;;
55655;SDS011;41530;52.382;5.270;2024-02-26T04:12:50;2.72;;;2.03;;
55655;SDS011;41530;52.382;5.270;2024-02-26T04:15:17;2.10;;;1.80;;
55655;SDS011;41530;52.382;5.270;2024-02-26T04:17:44;2.15;;;1.92;;
55655;SDS011;41530;52.382;5.270;2024-02-26T04:20:15;2.75;;;1.98;;
55655;SDS011;41530;52.382;5.270;2024-02-26T04:22:43;2.53;;;2.30;;
55655;SDS011;41530;52.382;5.270;2024-02-26T04:25:10;2.60;;;1.95;;
55655;SDS011;41530;52.382;5.270;2024-02-26T04:27:37;2.33;;;2.00;;
55655;SDS011;41530;52.382;5.270;2024-02-26T04:30:05;2.58;;;2.08;;
55655;SDS011;41530;52.382;5.270;2024-02-26T04:32:33;2.60;;;2.00;;
55655;SDS011;41530;52.382;5.270;2024-02-26T04:35:01;2.42;;;2.00;;
55655;SDS011;41530;52.382;5.270;2024-02-26T04:37:29;2.47;;;2.10;;
55655;SDS011;41530;52.382;5.270;2024-02-26T04:39:58;3.33;;;2.38;;
55655;SDS011;41530;52.382;5.270;2024-02-26T04:42:25;2.30;;;2.10;;
55655;SDS011;41530;52.382;5.270;2024-02-26T04:44:53;3.20;;;2.30;;
55655;SDS011;41530;52.382;5.270;2024-02-26T04:47:21;2.47;;;2.28;;
55655;SDS011;41530;52.382;5.270;2024-02-26T04:49:49;2.45;;;2.13;;
55655;SDS011;41530;52.382;5.270;2024-02-26T04:52:16;5.22;;;2.30;;
55655;SDS011;41530;52.382;5.270;2024-02-26T04:54:43;2.50;;;2.30;;
55655;SDS011;41530;52.382;5.270;2024-02-26T04:57:09;3.90;;;2.63;;
55655;SDS011;41530;52.382;5.270;2024-02-26T04:59:36;2.53;;;2.33;;
55655;SDS011;41530;52.382;5.270;2024-02-26T05:02:03;2.83;;;2.40;;
55655;SDS011;41530;52.382;5.270;2024-02-26T05:04:30;3.38;;;2.80;;
55655;SDS011;41530;52.382;5.270;2024-02-26T05:07:00;4.07;;;3.10;;
55655;SDS011;41530;52.382;5.270;2024-02-26T05:09:27;3.10;;;2.80;;
55655;SDS011;41530;52.382;5.270;2024-02-26T05:11:54;3.22;;;2.60;;
55655;SDS011;41530;52.382;5.270;2024-02-26T05:14:20;3.90;;;3.10;;
55655;SDS011;41530;52.382;5.270;2024-02-26T05:16:47;2.92;;;2.55;;
55655;SDS011;41530;52.382;5.270;2024-02-26T05:19:14;3.08;;;2.78;;
55655;SDS011;41530;52.382;5.270;2024-02-26T05:21:41;2.70;;;2.42;;
55655;SDS011;41530;52.382;5.270;2024-02-26T05:24:10;4.78;;;3.03;;
55655;SDS011;41530;52.382;5.270;2024-02-26T05:26:37;2.97;;;2.67;;
55655;SDS011;41530;52.382;5.270;2024-02-26T05:29:04;3.40;;;2.95;;
55655;SDS011;41530;52.382;5.270;2024-02-26T05:31:30;3.78;;;3.10;;
55655;SDS011;41530;52.382;5.270;2024-02-26T05:33:57;3.97;;;2.90;;
55655;SDS011;41530;52.382;5.270;2024-02-26T05:36:24;3.25;;;2.80;;
55655;SDS011;41530;52.382;5.270;2024-02-26T05:38:51;4.57;;;3.17;;
55655;SDS011;41530;52.382;5.270;2024-02-26T05:41:18;4.30;;;3.08;;
55655;SDS011;41530;52.382;5.270;2024-02-26T05:43:49;3.60;;;3.10;;
55655;SDS011;41530;52.382;5.270;2024-02-26T05:46:17;3.15;;;2.85;;
55655;SDS011;41530;52.382;5.270;2024-02-26T05:48:44;3.38;;;3.00;;
55655;SDS011;41530;52.382;5.270;2024-02-26T05:51:13;4.57;;;3.10;;
55655;SDS011;41530;52.382;5.270;2024-02-26T05:53:43;3.85;;;2.80;;
55655;SDS011;41530;52.382;5.270;2024-02-26T05:56:10;3.92;;;3.30;;
55655;SDS011;41530;52.382;5.270;2024-02-26T05:58:36;3.28;;;2.97;;
55655;SDS011;41530;52.382;5.270;2024-02-26T06:01:04;4.35;;;2.40;;
55655;SDS011;41530;52.382;5.270;2024-02-26T06:03:31;4.22;;;2.53;;
55655;SDS011;41530;52.382;5.270;2024-02-26T06:05:57;3.08;;;2.20;;
55655;SDS011;41530;52.382;5.270;2024-02-26T06:08:24;2.40;;;2.20;;
55655;SDS011;41530;52.382;5.270;2024-02-26T06:10:51;3.47;;;2.22;;
55655;SDS011;41530;52.382;5.270;2024-02-26T06:13:18;2.30;;;1.80;;
55655;SDS011;41530;52.382;5.270;2024-02-26T06:15:44;2.05;;;1.85;;
55655;SDS011;41530;52.382;5.270;2024-02-26T06:18:11;3.08;;;2.22;;
55655;SDS011;41530;52.382;5.270;2024-02-26T06:20:38;2.63;;;2.42;;
55655;SDS011;41530;52.382;5.270;2024-02-26T06:23:04;2.00;;;1.80;;
55655;SDS011;41530;52.382;5.270;2024-02-26T06:25:31;2.50;;;2.13;;
55655;SDS011;41530;52.382;5.270;2024-02-26T06:27:58;4.07;;;2.70;;
55655;SDS011;41530;52.382;5.270;2024-02-26T06:30:25;3.33;;;2.42;;
55655;SDS011;41530;52.382;5.270;2024-02-26T06:32:52;4.43;;;2.78;;
55655;SDS011;41530;52.382;5.270;2024-02-26T06:35:18;4.25;;;2.67;;
55655;SDS011;41530;52.382;5.270;2024-02-26T06:37:45;4.03;;;2.90;;
55655;SDS011;41530;52.382;5.270;2024-02-26T06:40:12;3.60;;;3.30;;
55655;SDS011;41530;52.382;5.270;2024-02-26T06:42:39;2.90;;;2.60;;
55655;SDS011;41530;52.382;5.270;2024-02-26T06:45:05;3.20;;;2.50;;
55655;SDS011;41530;52.382;5.270;2024-02-26T06:47:34;3.67;;;2.70;;
55655;SDS011;41530;52.382;5.270;2024-02-26T06:50:00;3.45;;;2.97;;
55655;SDS011;41530;52.382;5.270;2024-02-26T06:52:27;3.28;;;2.80;;
55655;SDS011;41530;52.382;5.270;2024-02-26T06:54:54;4.65;;;2.78;;
55655;SDS011;41530;52.382;5.270;2024-02-26T06:57:21;3.20;;;2.90;;
55655;SDS011;41530;52.382;5.270;2024-02-26T06:59:48;4.70;;;2.47;;
55655;SDS011;41530;52.382;5.270;2024-02-26T07:02:15;18.75;;;3.03;;
55655;SDS011;41530;52.382;5.270;2024-02-26T07:04:45;3.10;;;2.58;;
55655;SDS011;41530;52.382;5.270;2024-02-26T07:07:12;2.90;;;2.42;;
55655;SDS011;41530;52.382;5.270;2024-02-26T07:09:41;2.20;;;2.03;;
55655;SDS011;41530;52.382;5.270;2024-02-26T07:12:08;2.22;;;2.03;;
55655;SDS011;41530;52.382;5.270;2024-02-26T07:14:35;4.55;;;2.25;;
55655;SDS011;41530;52.382;5.270;2024-02-26T07:17:03;2.10;;;1.83;;
55655;SDS011;41530;52.382;5.270;2024-02-26T07:19:30;4.60;;;2.00;;
55655;SDS011;41530;52.382;5.270;2024-02-26T07:21:57;2.65;;;1.67;;
55655;SDS011;41530;52.382;5.270;2024-02-26T07:24:24;5.75;;;1.65;;
55655;SDS011;41530;52.382;5.270;2024-02-26T07:26:52;2.47;;;1.60;;
55655;SDS011;41530;52.382;5.270;2024-02-26T07:29:21;1.70;;;1.33;;
55655;SDS011;41530;52.382;5.270;2024-02-26T07:31:48;1.52;;;1.38;;
55655;SDS011;41530;52.382;5.270;2024-02-26T07:34:14;4.60;;;1.48;;
55655;SDS011;41530;52.382;5.270;2024-02-26T07:36:42;1.50;;;1.10;;
55655;SDS011;41530;52.382;5.270;2024-02-26T07:39:10;1.92;;;1.20;;
55655;SDS011;41530;52.382;5.270;2024-02-26T07:41:39;1.20;;;1.08;;
55655;SDS011;41530;52.382;5.270;2024-02-26T07:44:13;1.08;;;1.00;;
55655;SDS011;41530;52.382;5.270;2024-02-26T07:46:42;1.05;;;0.90;;
55655;SDS011;41530;52.382;5.270;2024-02-26T07:49:09;2.03;;;0.80;;
55655;SDS011;41530;52.382;5.270;2024-02-26T07:51:35;1.80;;;0.90;;
55655;SDS011;41530;52.382;5.270;2024-02-26T07:54:02;2.42;;;0.95;;
55655;SDS011;41530;52.382;5.270;2024-02-26T07:56:29;1.42;;;0.90;;
55655;SDS011;41530;52.382;5.270;2024-02-26T07:58:56;2.25;;;0.82;;
55655;SDS011;41530;52.382;5.270;2024-02-26T08:01:22;1.17;;;0.80;;
55655;SDS011;41530;52.382;5.270;2024-02-26T08:03:49;1.15;;;0.82;;
55655;SDS011;41530;52.382;5.270;2024-02-26T08:06:16;1.00;;;0.70;;
55655;SDS011;41530;52.382;5.270;2024-02-26T08:08:43;0.88;;;0.82;;
55655;SDS011;41530;52.382;5.270;2024-02-26T08:11:10;0.80;;;0.80;;
55655;SDS011;41530;52.382;5.270;2024-02-26T08:13:37;0.93;;;0.60;;
55655;SDS011;41530;52.382;5.270;2024-02-26T08:16:04;0.63;;;0.63;;
55655;SDS011;41530;52.382;5.270;2024-02-26T08:18:31;4.40;;;0.63;;
55655;SDS011;41530;52.382;5.270;2024-02-26T08:20:58;1.45;;;0.75;;
55655;SDS011;41530;52.382;5.270;2024-02-26T08:23:25;0.82;;;0.57;;
55655;SDS011;41530;52.382;5.270;2024-02-26T08:25:52;0.57;;;0.57;;
55655;SDS011;41530;52.382;5.270;2024-02-26T08:28:19;0.85;;;0.70;;
55655;SDS011;41530;52.382;5.270;2024-02-26T08:30:46;0.93;;;0.60;;
55655;SDS011;41530;52.382;5.270;2024-02-26T08:33:12;0.40;;;0.40;;
55655;SDS011;41530;52.382;5.270;2024-02-26T08:35:40;0.80;;;0.50;;
55655;SDS011;41530;52.382;5.270;2024-02-26T08:38:10;0.60;;;0.60;;
55655;SDS011;41530;52.382;5.270;2024-02-26T08:40:39;0.57;;;0.50;;
55655;SDS011;41530;52.382;5.270;2024-02-26T08:43:06;2.53;;;0.75;;
55655;SDS011;41530;52.382;5.270;2024-02-26T08:45:32;0.85;;;0.50;;
55655;SDS011;41530;52.382;5.270;2024-02-26T08:47:59;3.33;;;0.50;;
55655;SDS011;41530;52.382;5.270;2024-02-26T08:50:26;0.93;;;0.65;;
55655;SDS011;41530;52.382;5.270;2024-02-26T08:52:56;0.70;;;0.60;;
55655;SDS011;41530;52.382;5.270;2024-02-26T08:55:22;2.17;;;0.43;;
55655;SDS011;41530;52.382;5.270;2024-02-26T08:57:49;0.50;;;0.40;;
55655;SDS011;41530;52.382;5.270;2024-02-26T09:00:16;2.25;;;0.50;;
55655;SDS011;41530;52.382;5.270;2024-02-26T09:02:47;0.40;;;0.40;;
55655;SDS011;41530;52.382;5.270;2024-02-26T09:05:15;0.40;;;0.40;;
55655;SDS011;41530;52.382;5.270;2024-02-26T09:07:42;0.40;;;0.40;;
55655;SDS011;41530;52.382;5.270;2024-02-26T09:10:09;0.30;;;0.30;;
55655;SDS011;41530;52.382;5.270;2024-02-26T09:12:37;0.40;;;0.40;;
55655;SDS011;41530;52.382;5.270;2024-02-26T09:15:06;1.50;;;0.40;;
55655;SDS011;41530;52.382;5.270;2024-02-26T09:17:33;0.47;;;0.40;;
55655;SDS011;41530;52.382;5.270;2024-02-26T09:20:02;0.40;;;0.40;;
55655;SDS011;41530;52.382;5.270;2024-02-26T09:22:29;0.55;;;0.40;;
55655;SDS011;41530;52.382;5.270;2024-02-26T09:24:56;0.43;;;0.43;;
55655;SDS011;41530;52.382;5.270;2024-02-26T09:27:22;0.60;;;0.57;;
55655;SDS011;41530;52.382;5.270;2024-02-26T09:29:50;0.40;;;0.40;;
55655;SDS011;41530;52.382;5.270;2024-02-26T09:32:17;0.85;;;0.40;;
55655;SDS011;41530;52.382;5.270;2024-02-26T09:34:44;0.57;;;0.43;;
55655;SDS011;41530;52.382;5.270;2024-02-26T09:37:10;0.45;;;0.40;;
55655;SDS011;41530;52.382;5.270;2024-02-26T09:39:47;0.50;;;0.50;;
55655;SDS011;41530;52.382;5.270;2024-02-26T09:42:14;0.88;;;0.60;;
55655;SDS011;41530;52.382;5.270;2024-02-26T09:44:43;0.50;;;0.50;;
55655;SDS011;41530;52.382;5.270;2024-02-26T09:47:11;0.75;;;0.45;;
55655;SDS011;41530;52.382;5.270;2024-02-26T09:49:41;0.90;;;0.40;;
55655;SDS011;41530;52.382;5.270;2024-02-26T09:52:09;1.65;;;0.50;;
55655;SDS011;41530;52.382;5.270;2024-02-26T09:54:36;0.65;;;0.40;;
55655;SDS011;41530;52.382;5.270;2024-02-26T09:57:08;1.40;;;0.60;;
55655;SDS011;41530;52.382;5.270;2024-02-26T09:59:41;0.63;;;0.50;;
55655;SDS011;41530;52.382;5.270;2024-02-26T10:02:11;0.40;;;0.40;;
55655;SDS011;41530;52.382;5.270;2024-02-26T10:04:39;0.63;;;0.50;;
55655;SDS011;41530;52.382;5.270;2024-02-26T10:07:10;0.50;;;0.50;;
55655;SDS011;41530;52.382;5.270;2024-02-26T10:09:40;0.52;;;0.40;;
55655;SDS011;41530;52.382;5.270;2024-02-26T10:12:08;0.50;;;0.50;;
55655;SDS011;41530;52.382;5.270;2024-02-26T10:14:40;0.73;;;0.43;;
55655;SDS011;41530;52.382;5.270;2024-02-26T10:17:07;0.47;;;0.40;;
55655;SDS011;41530;52.382;5.270;2024-02-26T10:19:35;2.00;;;0.38;;
55655;SDS011;41530;52.382;5.270;2024-02-26T10:22:04;0.75;;;0.40;;
55655;SDS011;41530;52.382;5.270;2024-02-26T10:24:32;0.50;;;0.50;;
55655;SDS011;41530;52.382;5.270;2024-02-26T10:27:01;0.57;;;0.40;;
55655;SDS011;41530;52.382;5.270;2024-02-26T10:29:28;0.30;;;0.30;;
55655;SDS011;41530;52.382;5.270;2024-02-26T10:31:55;0.57;;;0.50;;
55655;SDS011;41530;52.382;5.270;2024-02-26T10:34:22;0.65;;;0.50;;
55655;SDS011;41530;52.382;5.270;2024-02-26T10:36:49;0.30;;;0.30;;
55655;SDS011;41530;52.382;5.270;2024-02-26T10:39:20;0.38;;;0.38;;
55655;SDS011;41530;52.382;5.270;2024-02-26T10:41:47;0.28;;;0.28;;
55655;SDS011;41530;52.382;5.270;2024-02-26T10:44:14;0.60;;;0.30;;
55655;SDS011;41530;52.382;5.270;2024-02-26T10:46:45;0.60;;;0.50;;
55655;SDS011;41530;52.382;5.270;2024-02-26T10:49:14;0.55;;;0.47;;
55655;SDS011;41530;52.382;5.270;2024-02-26T10:51:45;1.10;;;0.45;;
55655;SDS011;41530;52.382;5.270;2024-02-26T10:54:18;0.40;;;0.40;;
55655;SDS011;41530;52.382;5.270;2024-02-26T10:56:46;0.30;;;0.30;;
55655;SDS011;41530;52.382;5.270;2024-02-26T10:59:16;0.57;;;0.47;;
55655;SDS011;41530;52.382;5.270;2024-02-26T11:01:50;0.93;;;0.40;;
55655;SDS011;41530;52.382;5.270;2024-02-26T11:04:18;1.10;;;0.38;;
55655;SDS011;41530;52.382;5.270;2024-02-26T11:06:45;0.40;;;0.40;;
55655;SDS011;41530;52.382;5.270;2024-02-26T11:09:14;0.22;;;0.22;;
55655;SDS011;41530;52.382;5.270;2024-02-26T11:11:41;0.30;;;0.30;;
55655;SDS011;41530;52.382;5.270;2024-02-26T11:14:09;0.90;;;0.45;;
55655;SDS011;41530;52.382;5.270;2024-02-26T11:16:39;0.28;;;0.28;;
55655;SDS011;41530;52.382;5.270;2024-02-26T11:19:09;0.30;;;0.30;;
55655;SDS011;41530;52.382;5.270;2024-02-26T11:21:39;1.10;;;0.50;;
55655;SDS011;41530;52.382;5.270;2024-02-26T11:24:13;0.73;;;0.40;;
55655;SDS011;41530;52.382;5.270;2024-02-26T11:26:45;0.30;;;0.30;;
55655;SDS011;41530;52.382;5.270;2024-02-26T11:29:18;0.50;;;0.50;;
55655;SDS011;41530;52.382;5.270;2024-02-26T11:31:50;1.23;;;0.70;;
55655;SDS011;41530;52.382;5.270;2024-02-26T11:34:17;0.30;;;0.30;;
55655;SDS011;41530;52.382;5.270;2024-02-26T11:36:45;1.40;;;0.38;;
55655;SDS011;41530;52.382;5.270;2024-02-26T11:39:12;0.73;;;0.30;;
55655;SDS011;41530;52.382;5.270;2024-02-26T11:41:43;0.47;;;0.32;;
55655;SDS011;41530;52.382;5.270;2024-02-26T11:44:10;0.38;;;0.38;;
55655;SDS011;41530;52.382;5.270;2024-02-26T11:46:40;1.00;;;0.40;;
55655;SDS011;41530;52.382;5.270;2024-02-26T11:52:07;0.50;;;0.50;;
55655;SDS011;41530;52.382;5.270;2024-02-26T11:59:55;0.52;;;0.40;;
55655;SDS011;41530;52.382;5.270;2024-02-26T12:02:40;0.45;;;0.30;;
55655;SDS011;41530;52.382;5.270;2024-02-26T12:05:18;0.52;;;0.35;;
55655;SDS011;41530;52.382;5.270;2024-02-26T12:08:04;0.63;;;0.50;;
55655;SDS011;41530;52.382;5.270;2024-02-26T12:10:38;0.60;;;0.45;;
55655;SDS011;41530;52.382;5.270;2024-02-26T12:13:15;0.57;;;0.47;;
55655;SDS011;41530;52.382;5.270;2024-02-26T12:15:54;0.70;;;0.60;;
55655;SDS011;41530;52.382;5.270;2024-02-26T12:18:22;0.75;;;0.40;;
55655;SDS011;41530;52.382;5.270;2024-02-26T12:20:59;1.95;;;0.45;;
55655;SDS011;41530;52.382;5.270;2024-02-26T12:23:30;0.40;;;0.40;;
55655;SDS011;41530;52.382;5.270;2024-02-26T12:26:00;0.73;;;0.50;;
55655;SDS011;41530;52.382;5.270;2024-02-26T12:28:31;0.65;;;0.45;;
55655;SDS011;41530;52.382;5.270;2024-02-26T12:30:58;0.65;;;0.60;;
55655;SDS011;41530;52.382;5.270;2024-02-26T12:33:26;1.55;;;0.60;;
55655;SDS011;41530;52.382;5.270;2024-02-26T12:35:55;0.73;;;0.55;;
55655;SDS011;41530;52.382;5.270;2024-02-26T12:38:22;0.45;;;0.40;;
55655;SDS011;41530;52.382;5.270;2024-02-26T12:40:49;1.00;;;0.70;;
55655;SDS011;41530;52.382;5.270;2024-02-26T12:43:16;0.35;;;0.35;;
55655;SDS011;41530;52.382;5.270;2024-02-26T12:45:43;0.95;;;0.57;;
55655;SDS011;41530;52.382;5.270;2024-02-26T12:48:12;0.77;;;0.55;;
55655;SDS011;41530;52.382;5.270;2024-02-26T12:50:44;3.22;;;0.50;;
55655;SDS011;41530;52.382;5.270;2024-02-26T12:53:11;0.52;;;0.40;;
55655;SDS011;41530;52.382;5.270;2024-02-26T12:55:38;0.40;;;0.30;;
55655;SDS011;41530;52.382;5.270;2024-02-26T12:58:07;0.77;;;0.60;;
55655;SDS011;41530;52.382;5.270;2024-02-26T13:00:34;1.05;;;0.50;;
55655;SDS011;41530;52.382;5.270;2024-02-26T13:03:01;1.02;;;0.40;;
55655;SDS011;41530;52.382;5.270;2024-02-26T13:05:28;0.40;;;0.40;;
55655;SDS011;41530;52.382;5.270;2024-02-26T13:07:59;1.73;;;0.50;;
55655;SDS011;41530;52.382;5.270;2024-02-26T13:10:31;0.68;;;0.68;;
55655;SDS011;41530;52.382;5.270;2024-02-26T13:13:01;0.50;;;0.47;;
55655;SDS011;41530;52.382;5.270;2024-02-26T13:15:31;0.70;;;0.40;;
55655;SDS011;41530;52.382;5.270;2024-02-26T13:17:59;0.65;;;0.50;;
55655;SDS011;41530;52.382;5.270;2024-02-26T13:20:46;0.68;;;0.50;;
55655;SDS011;41530;52.382;5.270;2024-02-26T13:23:14;0.40;;;0.30;;
55655;SDS011;41530;52.382;5.270;2024-02-26T13:25:42;0.93;;;0.30;;
55655;SDS011;41530;52.382;5.270;2024-02-26T13:28:16;0.80;;;0.52;;
55655;SDS011;41530;52.382;5.270;2024-02-26T13:33:28;1.95;;;0.45;;
55655;SDS011;41530;52.382;5.270;2024-02-26T13:35:56;0.90;;;0.50;;
55655;SDS011;41530;52.382;5.270;2024-02-26T13:38:24;0.40;;;0.40;;
55655;SDS011;41530;52.382;5.270;2024-02-26T13:40:51;2.97;;;0.50;;
55655;SDS011;41530;52.382;5.270;2024-02-26T13:43:18;0.90;;;0.50;;
55655;SDS011;41530;52.382;5.270;2024-02-26T13:45:45;0.60;;;0.40;;
55655;SDS011;41530;52.382;5.270;2024-02-26T13:48:13;0.77;;;0.57;;
55655;SDS011;41530;52.382;5.270;2024-02-26T13:50:41;0.77;;;0.45;;
55655;SDS011;41530;52.382;5.270;2024-02-26T13:53:12;1.00;;;0.40;;
55655;SDS011;41530;52.382;5.270;2024-02-26T13:55:40;0.95;;;0.50;;
55655;SDS011;41530;52.382;5.270;2024-02-26T13:58:11;0.82;;;0.45;;
55655;SDS011;41530;52.382;5.270;2024-02-26T14:00:39;1.95;;;0.45;;
55655;SDS011;41530;52.382;5.270;2024-02-26T14:03:08;0.30;;;0.30;;
55655;SDS011;41530;52.382;5.270;2024-02-26T14:05:35;0.32;;;0.32;;
55655;SDS011;41530;52.382;5.270;2024-02-26T14:08:02;0.70;;;0.40;;
55655;SDS011;41530;52.382;5.270;2024-02-26T14:10:29;0.52;;;0.50;;
55655;SDS011;41530;52.382;5.270;2024-02-26T14:12:58;0.40;;;0.40;;
55655;SDS011;41530;52.382;5.270;2024-02-26T14:15:25;0.75;;;0.38;;
55655;SDS011;41530;52.382;5.270;2024-02-26T14:17:52;0.45;;;0.30;;
55655;SDS011;41530;52.382;5.270;2024-02-26T14:20:23;0.40;;;0.40;;
55655;SDS011;41530;52.382;5.270;2024-02-26T14:22:50;0.60;;;0.45;;
55655;SDS011;41530;52.382;5.270;2024-02-26T14:25:20;1.30;;;0.60;;
55655;SDS011;41530;52.382;5.270;2024-02-26T14:27:47;0.35;;;0.35;;
55655;SDS011;41530;52.382;5.270;2024-02-26T14:30:14;0.82;;;0.40;;
55655;SDS011;41530;52.382;5.270;2024-02-26T14:32:42;0.45;;;0.40;;
55655;SDS011;41530;52.382;5.270;2024-02-26T14:35:09;0.70;;;0.50;;
55655;SDS011;41530;52.382;5.270;2024-02-26T14:37:42;0.68;;;0.50;;
55655;SDS011;41530;52.382;5.270;2024-02-26T14:40:13;0.50;;;0.40;;
55655;SDS011;41530;52.382;5.270;2024-02-26T14:42:40;0.50;;;0.40;;
55655;SDS011;41530;52.382;5.270;2024-02-26T14:45:10;0.50;;;0.40;;
55655;SDS011;41530;52.382;5.270;2024-02-26T14:47:39;0.30;;;0.30;;
55655;SDS011;41530;52.382;5.270;2024-02-26T14:50:07;0.47;;;0.32;;
55655;SDS011;41530;52.382;5.270;2024-02-26T14:52:34;0.47;;;0.40;;
55655;SDS011;41530;52.382;5.270;2024-02-26T14:55:01;0.47;;;0.43;;
55655;SDS011;41530;52.382;5.270;2024-02-26T14:57:28;2.95;;;0.50;;
55655;SDS011;41530;52.382;5.270;2024-02-26T14:59:54;0.40;;;0.40;;
55655;SDS011;41530;52.382;5.270;2024-02-26T15:02:21;0.43;;;0.30;;
55655;SDS011;41530;52.382;5.270;2024-02-26T15:04:48;1.17;;;0.40;;